sensor_id;sensor_type;location;lat;lon;timestamp;temperature;humidity
13464;DHT22;6804;48.774;9.174;2022-07-12T00:01:12;19.90;99.90
13464;DHT22;6804;48.774;9.174;2022-07-12T00:03:42;19.80;99.90
13464;DHT22;6804;48.774;9.174;2022-07-12T00:06:10;19.80;99.90
13464;DHT22;6804;48.774;9.174;2022-07-12T00:08:38;19.70;99.90
13464;DHT22;6804;48.774;9.174;2022-07-12T00:11:07;19.70;99.90
13464;DHT22;6804;48.774;9.174;2022-07-12T00:13:37;19.60;99.90
13464;DHT22;6804;48.774;9.174;2022-07-12T00:16:07;19.60;99.90
13464;DHT22;6804;48.774;9.174;2022-07-12T00:18:37;19.60;99.90
13464;DHT22;6804;48.774;9.174;2022-07-12T00:21:11;19.60;99.90
13464;DHT22;6804;48.774;9.174;2022-07-12T00:23:38;19.50;99.90
13464;DHT22;6804;48.774;9.174;2022-07-12T00:26:05;19.40;99.90
13464;DHT22;6804;48.774;9.174;2022-07-12T00:28:32;19.30;99.90
13464;DHT22;6804;48.774;9.174;2022-07-12T00:31:00;19.30;99.90
13464;DHT22;6804;48.774;9.174;2022-07-12T00:33:27;19.20;99.90
13464;DHT22;6804;48.774;9.174;2022-07-12T00:35:57;19.20;99.90
13464;DHT22;6804;48.774;9.174;2022-07-12T00:38:31;19.10;99.90
13464;DHT22;6804;48.774;9.174;2022-07-12T00:41:02;19.20;99.90
13464;DHT22;6804;48.774;9.174;2022-07-12T00:43:29;19.30;99.90
13464;DHT22;6804;48.774;9.174;2022-07-12T00:45:56;19.30;99.90
13464;DHT22;6804;48.774;9.174;2022-07-12T00:48:24;19.40;99.90
13464;DHT22;6804;48.774;9.174;2022-07-12T00:50:53;19.30;99.90
13464;DHT22;6804;48.774;9.174;2022-07-12T00:53:20;19.30;99.90
13464;DHT22;6804;48.774;9.174;2022-07-12T00:55:53;19.30;99.90
13464;DHT22;6804;48.774;9.174;2022-07-12T00:58:21;19.30;99.90
13464;DHT22;6804;48.774;9.174;2022-07-12T01:00:49;19.30;99.90
13464;DHT22;6804;48.774;9.174;2022-07-12T01:03:17;19.30;99.90
13464;DHT22;6804;48.774;9.174;2022-07-12T01:05:45;19.20;99.90
13464;DHT22;6804;48.774;9.174;2022-07-12T01:08:13;19.20;99.90
13464;DHT22;6804;48.774;9.174;2022-07-12T01:10:43;19.20;99.90
13464;DHT22;6804;48.774;9.174;2022-07-12T01:13:15;19.10;99.90
13464;DHT22;6804;48.774;9.174;2022-07-12T01:15:42;19.10;99.90
13464;DHT22;6804;48.774;9.174;2022-07-12T01:18:11;19.10;99.90
13464;DHT22;6804;48.774;9.174;2022-07-12T01:20:42;19.10;99.90
13464;DHT22;6804;48.774;9.174;2022-07-12T01:23:14;19.10;99.90
13464;DHT22;6804;48.774;9.174;2022-07-12T01:25:42;19.10;99.90
13464;DHT22;6804;48.774;9.174;2022-07-12T01:28:10;19.00;99.90
13464;DHT22;6804;48.774;9.174;2022-07-12T01:30:40;19.00;99.90
13464;DHT22;6804;48.774;9.174;2022-07-12T01:33:12;18.90;99.90
13464;DHT22;6804;48.774;9.174;2022-07-12T01:35:39;18.90;99.90
13464;DHT22;6804;48.774;9.174;2022-07-12T01:38:09;18.80;99.90
13464;DHT22;6804;48.774;9.174;2022-07-12T01:40:38;18.70;99.90
13464;DHT22;6804;48.774;9.174;2022-07-12T01:43:06;18.70;99.90
13464;DHT22;6804;48.774;9.174;2022-07-12T01:45:36;18.70;99.90
13464;DHT22;6804;48.774;9.174;2022-07-12T01:48:04;18.70;99.90
13464;DHT22;6804;48.774;9.174;2022-07-12T01:50:31;18.70;99.90
13464;DHT22;6804;48.774;9.174;2022-07-12T01:53:00;18.80;99.90
13464;DHT22;6804;48.774;9.174;2022-07-12T01:55:28;18.70;99.90
13464;DHT22;6804;48.774;9.174;2022-07-12T01:57:58;18.70;99.90
13464;DHT22;6804;48.774;9.174;2022-07-12T02:00:27;18.60;99.90
13464;DHT22;6804;48.774;9.174;2022-07-12T02:02:55;18.60;99.90
13464;DHT22;6804;48.774;9.174;2022-07-12T02:05:22;18.70;99.90
13464;DHT22;6804;48.774;9.174;2022-07-12T02:07:49;18.60;99.90
13464;DHT22;6804;48.774;9.174;2022-07-12T02:10:18;18.60;99.90
13464;DHT22;6804;48.774;9.174;2022-07-12T02:12:48;18.60;99.90
13464;DHT22;6804;48.774;9.174;2022-07-12T02:15:16;18.50;99.90
13464;DHT22;6804;48.774;9.174;2022-07-12T02:17:44;18.50;99.90
13464;DHT22;6804;48.774;9.174;2022-07-12T02:20:13;18.50;99.90
13464;DHT22;6804;48.774;9.174;2022-07-12T02:22:40;18.50;99.90
13464;DHT22;6804;48.774;9.174;2022-07-12T02:25:10;18.50;99.90
13464;DHT22;6804;48.774;9.174;2022-07-12T02:27:40;18.40;99.90
13464;DHT22;6804;48.774;9.174;2022-07-12T02:30:11;18.40;99.90
13464;DHT22;6804;48.774;9.174;2022-07-12T02:32:39;18.40;99.90
13464;DHT22;6804;48.774;9.174;2022-07-12T02:35:10;18.40;99.90
13464;DHT22;6804;48.774;9.174;2022-07-12T02:37:39;18.30;99.90
13464;DHT22;6804;48.774;9.174;2022-07-12T02:40:09;18.30;99.90
13464;DHT22;6804;48.774;9.174;2022-07-12T02:42:53;18.30;99.90
13464;DHT22;6804;48.774;9.174;2022-07-12T02:45:20;18.20;99.90
13464;DHT22;6804;48.774;9.174;2022-07-12T02:47:54;18.20;99.90
13464;DHT22;6804;48.774;9.174;2022-07-12T02:50:21;18.20;99.90
13464;DHT22;6804;48.774;9.174;2022-07-12T02:52:48;18.20;99.90
13464;DHT22;6804;48.774;9.174;2022-07-12T02:55:16;18.20;99.90
13464;DHT22;6804;48.774;9.174;2022-07-12T02:57:43;18.20;99.90
13464;DHT22;6804;48.774;9.174;2022-07-12T03:00:16;18.20;99.90
13464;DHT22;6804;48.774;9.174;2022-07-12T03:02:43;18.20;99.90
13464;DHT22;6804;48.774;9.174;2022-07-12T03:05:12;18.10;99.90
13464;DHT22;6804;48.774;9.174;2022-07-12T03:07:39;18.10;99.90
13464;DHT22;6804;48.774;9.174;2022-07-12T03:10:06;18.00;99.90
13464;DHT22;6804;48.774;9.174;2022-07-12T03:12:35;17.90;99.90
13464;DHT22;6804;48.774;9.174;2022-07-12T03:15:06;17.90;99.90
13464;DHT22;6804;48.774;9.174;2022-07-12T03:17:36;17.90;99.90
13464;DHT22;6804;48.774;9.174;2022-07-12T03:20:05;17.90;99.90
13464;DHT22;6804;48.774;9.174;2022-07-12T03:22:38;17.90;99.90
13464;DHT22;6804;48.774;9.174;2022-07-12T03:25:06;17.80;99.90
13464;DHT22;6804;48.774;9.174;2022-07-12T03:27:35;17.80;99.90
13464;DHT22;6804;48.774;9.174;2022-07-12T03:30:04;17.80;99.90
13464;DHT22;6804;48.774;9.174;2022-07-12T03:32:31;17.80;99.90
13464;DHT22;6804;48.774;9.174;2022-07-12T03:35:01;17.70;99.90
13464;DHT22;6804;48.774;9.174;2022-07-12T03:37:28;17.70;99.90
13464;DHT22;6804;48.774;9.174;2022-07-12T03:40:07;17.70;99.90
13464;DHT22;6804;48.774;9.174;2022-07-12T03:42:35;17.80;99.90
13464;DHT22;6804;48.774;9.174;2022-07-12T03:45:03;17.80;99.90
13464;DHT22;6804;48.774;9.174;2022-07-12T03:47:32;17.80;99.90
13464;DHT22;6804;48.774;9.174;2022-07-12T03:50:03;17.80;99.90
13464;DHT22;6804;48.774;9.174;2022-07-12T03:52:38;17.80;99.90
13464;DHT22;6804;48.774;9.174;2022-07-12T03:55:11;17.70;99.90
13464;DHT22;6804;48.774;9.174;2022-07-12T03:57:38;17.60;99.90
13464;DHT22;6804;48.774;9.174;2022-07-12T04:00:09;17.60;99.90
13464;DHT22;6804;48.774;9.174;2022-07-12T04:02:38;17.60;99.90
13464;DHT22;6804;48.774;9.174;2022-07-12T04:05:07;17.60;99.90
13464;DHT22;6804;48.774;9.174;2022-07-12T04:07:38;17.60;99.90
13464;DHT22;6804;48.774;9.174;2022-07-12T04:10:10;17.60;99.90
13464;DHT22;6804;48.774;9.174;2022-07-12T04:12:37;17.60;99.90
13464;DHT22;6804;48.774;9.174;2022-07-12T04:15:07;17.60;99.90
13464;DHT22;6804;48.774;9.174;2022-07-12T04:17:38;17.60;99.90
13464;DHT22;6804;48.774;9.174;2022-07-12T04:20:08;17.70;99.90
13464;DHT22;6804;48.774;9.174;2022-07-12T04:22:39;17.80;99.90
13464;DHT22;6804;48.774;9.174;2022-07-12T04:25:08;17.90;99.90
13464;DHT22;6804;48.774;9.174;2022-07-12T04:27:38;18.00;99.90
13464;DHT22;6804;48.774;9.174;2022-07-12T04:30:09;18.10;99.90
13464;DHT22;6804;48.774;9.174;2022-07-12T04:32:39;18.20;99.90
13464;DHT22;6804;48.774;9.174;2022-07-12T04:35:07;18.40;99.90
13464;DHT22;6804;48.774;9.174;2022-07-12T04:37:34;18.40;99.90
13464;DHT22;6804;48.774;9.174;2022-07-12T04:40:02;18.40;99.90
13464;DHT22;6804;48.774;9.174;2022-07-12T04:42:29;18.50;99.90
13464;DHT22;6804;48.774;9.174;2022-07-12T04:45:01;18.40;99.90
13464;DHT22;6804;48.774;9.174;2022-07-12T04:47:29;18.40;99.90
13464;DHT22;6804;48.774;9.174;2022-07-12T04:49:56;18.40;99.90
13464;DHT22;6804;48.774;9.174;2022-07-12T04:52:26;18.40;99.90
13464;DHT22;6804;48.774;9.174;2022-07-12T04:54:58;18.50;99.90
13464;DHT22;6804;48.774;9.174;2022-07-12T04:57:26;18.70;99.90
13464;DHT22;6804;48.774;9.174;2022-07-12T04:59:54;18.80;99.90
13464;DHT22;6804;48.774;9.174;2022-07-12T05:02:23;19.00;99.90
13464;DHT22;6804;48.774;9.174;2022-07-12T05:04:51;19.10;99.90
13464;DHT22;6804;48.774;9.174;2022-07-12T05:07:18;19.30;99.90
13464;DHT22;6804;48.774;9.174;2022-07-12T05:09:47;19.50;99.90
13464;DHT22;6804;48.774;9.174;2022-07-12T05:12:15;19.60;99.90
13464;DHT22;6804;48.774;9.174;2022-07-12T05:14:46;19.80;99.90
13464;DHT22;6804;48.774;9.174;2022-07-12T05:17:17;19.80;99.90
13464;DHT22;6804;48.774;9.174;2022-07-12T05:19:46;20.00;99.90
13464;DHT22;6804;48.774;9.174;2022-07-12T05:22:13;20.10;99.90
13464;DHT22;6804;48.774;9.174;2022-07-12T05:24:40;20.30;99.90
13464;DHT22;6804;48.774;9.174;2022-07-12T05:27:11;20.40;99.90
13464;DHT22;6804;48.774;9.174;2022-07-12T05:29:38;20.50;99.90
13464;DHT22;6804;48.774;9.174;2022-07-12T05:32:06;20.60;99.90
13464;DHT22;6804;48.774;9.174;2022-07-12T05:34:37;20.70;99.90
13464;DHT22;6804;48.774;9.174;2022-07-12T05:37:06;20.90;99.90
13464;DHT22;6804;48.774;9.174;2022-07-12T05:39:33;20.90;99.90
13464;DHT22;6804;48.774;9.174;2022-07-12T05:42:01;21.00;99.90
13464;DHT22;6804;48.774;9.174;2022-07-12T05:44:31;21.00;99.90
13464;DHT22;6804;48.774;9.174;2022-07-12T05:47:00;20.90;99.90
13464;DHT22;6804;48.774;9.174;2022-07-12T05:49:30;20.70;99.90
13464;DHT22;6804;48.774;9.174;2022-07-12T05:51:58;20.50;99.90
13464;DHT22;6804;48.774;9.174;2022-07-12T05:54:44;20.70;99.90
13464;DHT22;6804;48.774;9.174;2022-07-12T05:57:11;21.00;99.90
13464;DHT22;6804;48.774;9.174;2022-07-12T05:59:41;21.20;99.90
13464;DHT22;6804;48.774;9.174;2022-07-12T06:02:09;21.60;99.90
13464;DHT22;6804;48.774;9.174;2022-07-12T06:04:36;21.90;99.90
13464;DHT22;6804;48.774;9.174;2022-07-12T06:07:07;22.20;99.90
13464;DHT22;6804;48.774;9.174;2022-07-12T06:09:36;22.20;99.90
13464;DHT22;6804;48.774;9.174;2022-07-12T06:12:09;22.30;99.90
13464;DHT22;6804;48.774;9.174;2022-07-12T06:14:43;22.30;99.90
13464;DHT22;6804;48.774;9.174;2022-07-12T06:17:11;22.50;99.90
13464;DHT22;6804;48.774;9.174;2022-07-12T06:19:42;22.60;99.90
13464;DHT22;6804;48.774;9.174;2022-07-12T06:22:10;22.30;99.90
13464;DHT22;6804;48.774;9.174;2022-07-12T06:24:37;22.00;99.90
13464;DHT22;6804;48.774;9.174;2022-07-12T06:27:13;21.80;99.90
13464;DHT22;6804;48.774;9.174;2022-07-12T06:29:40;22.00;99.90
13464;DHT22;6804;48.774;9.174;2022-07-12T06:32:13;22.20;99.90
13464;DHT22;6804;48.774;9.174;2022-07-12T06:34:41;22.50;99.90
13464;DHT22;6804;48.774;9.174;2022-07-12T06:37:12;22.70;99.90
13464;DHT22;6804;48.774;9.174;2022-07-12T06:39:42;22.90;99.90
13464;DHT22;6804;48.774;9.174;2022-07-12T06:42:14;23.00;99.90
13464;DHT22;6804;48.774;9.174;2022-07-12T06:44:41;23.20;99.90
13464;DHT22;6804;48.774;9.174;2022-07-12T06:47:11;23.40;99.90
13464;DHT22;6804;48.774;9.174;2022-07-12T06:49:38;23.60;99.90
13464;DHT22;6804;48.774;9.174;2022-07-12T06:52:11;23.70;99.90
13464;DHT22;6804;48.774;9.174;2022-07-12T06:54:40;23.70;98.70
13464;DHT22;6804;48.774;9.174;2022-07-12T06:57:11;23.60;99.60
13464;DHT22;6804;48.774;9.174;2022-07-12T06:59:41;23.70;99.40
13464;DHT22;6804;48.774;9.174;2022-07-12T07:02:11;23.80;99.30
13464;DHT22;6804;48.774;9.174;2022-07-12T07:04:41;24.10;98.90
13464;DHT22;6804;48.774;9.174;2022-07-12T07:07:09;24.00;97.80
13464;DHT22;6804;48.774;9.174;2022-07-12T07:09:38;24.10;98.40
13464;DHT22;6804;48.774;9.174;2022-07-12T07:12:10;24.30;98.10
13464;DHT22;6804;48.774;9.174;2022-07-12T07:14:38;24.60;97.60
13464;DHT22;6804;48.774;9.174;2022-07-12T07:17:07;24.80;97.20
13464;DHT22;6804;48.774;9.174;2022-07-12T07:19:38;25.00;96.70
13464;DHT22;6804;48.774;9.174;2022-07-12T07:22:08;25.10;95.10
13464;DHT22;6804;48.774;9.174;2022-07-12T07:24:36;25.00;95.50
13464;DHT22;6804;48.774;9.174;2022-07-12T07:27:04;24.20;96.30
13464;DHT22;6804;48.774;9.174;2022-07-12T07:29:32;23.90;96.80
13464;DHT22;6804;48.774;9.174;2022-07-12T07:32:19;24.00;96.00
13464;DHT22;6804;48.774;9.174;2022-07-12T07:34:46;23.80;96.10
13464;DHT22;6804;48.774;9.174;2022-07-12T07:37:14;23.40;96.70
13464;DHT22;6804;48.774;9.174;2022-07-12T07:39:44;23.40;97.20
13464;DHT22;6804;48.774;9.174;2022-07-12T07:42:11;23.10;97.10
13464;DHT22;6804;48.774;9.174;2022-07-12T07:44:39;22.90;97.50
13464;DHT22;6804;48.774;9.174;2022-07-12T07:47:07;22.90;97.70
13464;DHT22;6804;48.774;9.174;2022-07-12T07:49:38;23.20;97.20
13464;DHT22;6804;48.774;9.174;2022-07-12T07:52:06;23.50;96.50
13464;DHT22;6804;48.774;9.174;2022-07-12T07:54:42;23.60;96.20
13464;DHT22;6804;48.774;9.174;2022-07-12T07:57:10;23.40;96.30
13464;DHT22;6804;48.774;9.174;2022-07-12T07:59:43;23.50;96.10
13464;DHT22;6804;48.774;9.174;2022-07-12T08:02:11;23.70;95.70
13464;DHT22;6804;48.774;9.174;2022-07-12T08:04:43;24.00;95.90
13464;DHT22;6804;48.774;9.174;2022-07-12T08:07:15;24.30;94.90
13464;DHT22;6804;48.774;9.174;2022-07-12T08:09:43;24.10;94.40
13464;DHT22;6804;48.774;9.174;2022-07-12T08:12:11;23.70;94.50
13464;DHT22;6804;48.774;9.174;2022-07-12T08:14:44;23.30;95.30
13464;DHT22;6804;48.774;9.174;2022-07-12T08:17:13;23.50;94.90
13464;DHT22;6804;48.774;9.174;2022-07-12T08:19:46;23.80;94.50
13464;DHT22;6804;48.774;9.174;2022-07-12T08:22:16;23.90;93.90
13464;DHT22;6804;48.774;9.174;2022-07-12T08:24:44;23.40;94.10
13464;DHT22;6804;48.774;9.174;2022-07-12T08:27:15;22.90;94.10
13464;DHT22;6804;48.774;9.174;2022-07-12T08:29:43;22.70;94.50
13464;DHT22;6804;48.774;9.174;2022-07-12T08:32:12;22.70;95.00
13464;DHT22;6804;48.774;9.174;2022-07-12T08:34:40;23.10;95.20
13464;DHT22;6804;48.774;9.174;2022-07-12T08:37:12;23.20;94.00
13464;DHT22;6804;48.774;9.174;2022-07-12T08:39:40;23.00;94.00
13464;DHT22;6804;48.774;9.174;2022-07-12T08:42:15;22.90;94.60
13464;DHT22;6804;48.774;9.174;2022-07-12T08:44:43;22.90;94.90
13464;DHT22;6804;48.774;9.174;2022-07-12T08:47:11;23.10;94.70
13464;DHT22;6804;48.774;9.174;2022-07-12T08:49:39;23.40;94.40
13464;DHT22;6804;48.774;9.174;2022-07-12T08:52:27;23.10;95.10
13464;DHT22;6804;48.774;9.174;2022-07-12T08:54:55;23.00;95.30
13464;DHT22;6804;48.774;9.174;2022-07-12T08:57:28;23.10;95.10
13464;DHT22;6804;48.774;9.174;2022-07-12T09:00:00;23.00;95.20
13464;DHT22;6804;48.774;9.174;2022-07-12T09:02:43;23.00;95.70
13464;DHT22;6804;48.774;9.174;2022-07-12T09:05:12;22.90;95.50
13464;DHT22;6804;48.774;9.174;2022-07-12T09:07:44;23.00;95.60
13464;DHT22;6804;48.774;9.174;2022-07-12T09:10:14;23.10;95.90
13464;DHT22;6804;48.774;9.174;2022-07-12T09:12:43;23.40;95.80
13464;DHT22;6804;48.774;9.174;2022-07-12T09:15:12;23.90;95.50
13464;DHT22;6804;48.774;9.174;2022-07-12T09:17:57;24.20;94.20
13464;DHT22;6804;48.774;9.174;2022-07-12T09:20:26;24.60;94.10
13464;DHT22;6804;48.774;9.174;2022-07-12T09:22:58;25.00;93.40
13464;DHT22;6804;48.774;9.174;2022-07-12T09:25:26;25.10;92.60
13464;DHT22;6804;48.774;9.174;2022-07-12T09:27:56;25.10;92.10
13464;DHT22;6804;48.774;9.174;2022-07-12T09:30:28;25.10;92.00
13464;DHT22;6804;48.774;9.174;2022-07-12T09:33:00;25.00;91.80
13464;DHT22;6804;48.774;9.174;2022-07-12T09:35:59;24.80;91.70
13464;DHT22;6804;48.774;9.174;2022-07-12T09:38:39;24.80;92.10
13464;DHT22;6804;48.774;9.174;2022-07-12T09:41:07;24.80;91.80
13464;DHT22;6804;48.774;9.174;2022-07-12T09:43:35;24.70;91.80
13464;DHT22;6804;48.774;9.174;2022-07-12T09:46:04;24.60;91.90
13464;DHT22;6804;48.774;9.174;2022-07-12T09:48:37;24.80;92.20
13464;DHT22;6804;48.774;9.174;2022-07-12T09:51:08;25.00;92.10
13464;DHT22;6804;48.774;9.174;2022-07-12T09:53:45;25.00;91.60
13464;DHT22;6804;48.774;9.174;2022-07-12T09:56:14;25.20;91.50
13464;DHT22;6804;48.774;9.174;2022-07-12T09:58:51;25.40;90.90
13464;DHT22;6804;48.774;9.174;2022-07-12T10:01:19;25.40;90.60
13464;DHT22;6804;48.774;9.174;2022-07-12T10:03:48;25.40;90.30
13464;DHT22;6804;48.774;9.174;2022-07-12T10:06:20;25.20;90.40
13464;DHT22;6804;48.774;9.174;2022-07-12T10:08:55;25.20;91.40
13464;DHT22;6804;48.774;9.174;2022-07-12T10:11:28;25.40;91.30
13464;DHT22;6804;48.774;9.174;2022-07-12T10:13:59;25.60;90.80
13464;DHT22;6804;48.774;9.174;2022-07-12T10:16:28;25.80;90.60
13464;DHT22;6804;48.774;9.174;2022-07-12T10:19:22;25.90;90.40
13464;DHT22;6804;48.774;9.174;2022-07-12T10:21:56;26.10;90.40
13464;DHT22;6804;48.774;9.174;2022-07-12T10:24:51;26.30;89.60
13464;DHT22;6804;48.774;9.174;2022-07-12T10:27:38;25.70;88.60
13464;DHT22;6804;48.774;9.174;2022-07-12T10:30:18;24.90;89.80
13464;DHT22;6804;48.774;9.174;2022-07-12T10:32:48;24.60;90.70
13464;DHT22;6804;48.774;9.174;2022-07-12T10:35:18;24.80;90.80
13464;DHT22;6804;48.774;9.174;2022-07-12T10:38:16;25.10;90.30
13464;DHT22;6804;48.774;9.174;2022-07-12T10:40:47;25.40;90.50
13464;DHT22;6804;48.774;9.174;2022-07-12T10:43:20;25.80;89.70
13464;DHT22;6804;48.774;9.174;2022-07-12T10:46:16;25.90;88.40
13464;DHT22;6804;48.774;9.174;2022-07-12T10:48:49;25.80;88.70
13464;DHT22;6804;48.774;9.174;2022-07-12T10:51:17;26.00;89.00
13464;DHT22;6804;48.774;9.174;2022-07-12T10:53:46;26.30;89.00
13464;DHT22;6804;48.774;9.174;2022-07-12T10:56:21;26.60;87.50
13464;DHT22;6804;48.774;9.174;2022-07-12T10:58:59;26.90;86.60
13464;DHT22;6804;48.774;9.174;2022-07-12T11:01:28;27.00;84.70
13464;DHT22;6804;48.774;9.174;2022-07-12T11:04:03;26.90;84.90
13464;DHT22;6804;48.774;9.174;2022-07-12T11:06:35;26.90;86.20
13464;DHT22;6804;48.774;9.174;2022-07-12T11:09:07;27.00;84.80
13464;DHT22;6804;48.774;9.174;2022-07-12T11:11:40;27.10;84.40
13464;DHT22;6804;48.774;9.174;2022-07-12T11:14:09;27.10;84.00
13464;DHT22;6804;48.774;9.174;2022-07-12T11:16:43;27.20;85.20
13464;DHT22;6804;48.774;9.174;2022-07-12T11:19:11;26.60;84.20
13464;DHT22;6804;48.774;9.174;2022-07-12T11:21:38;25.80;85.50
13464;DHT22;6804;48.774;9.174;2022-07-12T11:24:16;25.40;87.20
13464;DHT22;6804;48.774;9.174;2022-07-12T11:26:47;25.30;87.90
13464;DHT22;6804;48.774;9.174;2022-07-12T11:29:23;25.40;88.60
13464;DHT22;6804;48.774;9.174;2022-07-12T11:32:00;25.50;87.70
13464;DHT22;6804;48.774;9.174;2022-07-12T11:34:29;25.80;87.20
13464;DHT22;6804;48.774;9.174;2022-07-12T11:37:01;26.20;86.40
13464;DHT22;6804;48.774;9.174;2022-07-12T11:39:33;25.90;85.60
13464;DHT22;6804;48.774;9.174;2022-07-12T11:42:03;25.20;88.00
13464;DHT22;6804;48.774;9.174;2022-07-12T11:44:44;25.20;88.90
13464;DHT22;6804;48.774;9.174;2022-07-12T11:47:14;25.50;88.40
13464;DHT22;6804;48.774;9.174;2022-07-12T11:49:43;26.00;86.60
13464;DHT22;6804;48.774;9.174;2022-07-12T11:52:13;26.40;86.00
13464;DHT22;6804;48.774;9.174;2022-07-12T11:54:43;26.80;85.30
13464;DHT22;6804;48.774;9.174;2022-07-12T11:57:13;27.20;83.40
13464;DHT22;6804;48.774;9.174;2022-07-12T11:59:41;27.50;81.40
13464;DHT22;6804;48.774;9.174;2022-07-12T12:02:12;26.80;81.00
13464;DHT22;6804;48.774;9.174;2022-07-12T12:04:48;26.10;82.80
13464;DHT22;6804;48.774;9.174;2022-07-12T12:07:16;25.80;85.30
13464;DHT22;6804;48.774;9.174;2022-07-12T12:10:02;25.70;84.90
13464;DHT22;6804;48.774;9.174;2022-07-12T12:12:42;25.50;85.60
13464;DHT22;6804;48.774;9.174;2022-07-12T12:15:11;25.50;85.70
13464;DHT22;6804;48.774;9.174;2022-07-12T12:17:45;25.70;85.30
13464;DHT22;6804;48.774;9.174;2022-07-12T12:20:15;25.70;83.90
13464;DHT22;6804;48.774;9.174;2022-07-12T12:22:47;25.70;84.10
13464;DHT22;6804;48.774;9.174;2022-07-12T12:25:16;26.00;85.00
13464;DHT22;6804;48.774;9.174;2022-07-12T12:27:47;26.40;82.00
13464;DHT22;6804;48.774;9.174;2022-07-12T12:30:18;26.50;81.40
13464;DHT22;6804;48.774;9.174;2022-07-12T12:32:52;26.80;79.80
13464;DHT22;6804;48.774;9.174;2022-07-12T12:35:30;27.10;80.00
13464;DHT22;6804;48.774;9.174;2022-07-12T12:38:02;27.40;78.10
13464;DHT22;6804;48.774;9.174;2022-07-12T12:40:31;27.80;77.00
13464;DHT22;6804;48.774;9.174;2022-07-12T12:43:10;28.10;76.40
13464;DHT22;6804;48.774;9.174;2022-07-12T12:45:49;28.40;75.50
13464;DHT22;6804;48.774;9.174;2022-07-12T12:48:22;28.60;75.90
13464;DHT22;6804;48.774;9.174;2022-07-12T12:50:51;28.70;74.70
13464;DHT22;6804;48.774;9.174;2022-07-12T12:53:20;28.80;75.40
13464;DHT22;6804;48.774;9.174;2022-07-12T12:55:52;28.80;73.90
13464;DHT22;6804;48.774;9.174;2022-07-12T12:58:24;28.70;73.00
13464;DHT22;6804;48.774;9.174;2022-07-12T13:00:53;28.10;73.10
13464;DHT22;6804;48.774;9.174;2022-07-12T13:03:22;27.70;74.80
13464;DHT22;6804;48.774;9.174;2022-07-12T13:05:51;27.20;75.20
13464;DHT22;6804;48.774;9.174;2022-07-12T13:08:25;26.50;77.70
13464;DHT22;6804;48.774;9.174;2022-07-12T13:10:53;26.40;78.20
13464;DHT22;6804;48.774;9.174;2022-07-12T13:13:37;26.40;79.50
13464;DHT22;6804;48.774;9.174;2022-07-12T13:16:05;26.70;78.90
13464;DHT22;6804;48.774;9.174;2022-07-12T13:18:44;27.00;78.90
13464;DHT22;6804;48.774;9.174;2022-07-12T13:21:16;27.40;77.60
13464;DHT22;6804;48.774;9.174;2022-07-12T13:23:44;27.70;77.30
13464;DHT22;6804;48.774;9.174;2022-07-12T13:26:12;28.00;77.00
13464;DHT22;6804;48.774;9.174;2022-07-12T13:28:43;27.80;74.90
13464;DHT22;6804;48.774;9.174;2022-07-12T13:31:13;27.50;77.20
13464;DHT22;6804;48.774;9.174;2022-07-12T13:33:41;27.60;76.40
13464;DHT22;6804;48.774;9.174;2022-07-12T13:36:09;27.70;76.70
13464;DHT22;6804;48.774;9.174;2022-07-12T13:38:36;27.60;77.80
13464;DHT22;6804;48.774;9.174;2022-07-12T13:41:04;27.90;77.60
13464;DHT22;6804;48.774;9.174;2022-07-12T13:43:32;27.70;75.70
13464;DHT22;6804;48.774;9.174;2022-07-12T13:46:05;27.20;76.90
13464;DHT22;6804;48.774;9.174;2022-07-12T13:48:35;27.30;77.50
13464;DHT22;6804;48.774;9.174;2022-07-12T13:51:03;27.20;76.70
13464;DHT22;6804;48.774;9.174;2022-07-12T13:53:39;27.10;77.70
13464;DHT22;6804;48.774;9.174;2022-07-12T13:56:07;26.70;79.30
13464;DHT22;6804;48.774;9.174;2022-07-12T13:58:34;26.70;78.70
13464;DHT22;6804;48.774;9.174;2022-07-12T14:01:03;26.60;78.10
13464;DHT22;6804;48.774;9.174;2022-07-12T14:03:38;26.60;78.50
13464;DHT22;6804;48.774;9.174;2022-07-12T14:06:06;26.70;78.40
13464;DHT22;6804;48.774;9.174;2022-07-12T14:08:34;27.00;77.30
13464;DHT22;6804;48.774;9.174;2022-07-12T14:11:02;27.10;76.70
13464;DHT22;6804;48.774;9.174;2022-07-12T14:13:30;27.30;77.20
13464;DHT22;6804;48.774;9.174;2022-07-12T14:15:57;27.60;75.70
13464;DHT22;6804;48.774;9.174;2022-07-12T14:18:27;27.70;75.50
13464;DHT22;6804;48.774;9.174;2022-07-12T14:20:56;27.50;75.00
13464;DHT22;6804;48.774;9.174;2022-07-12T14:23:27;27.20;74.90
13464;DHT22;6804;48.774;9.174;2022-07-12T14:25:55;26.90;75.50
13464;DHT22;6804;48.774;9.174;2022-07-12T14:28:25;26.60;77.00
13464;DHT22;6804;48.774;9.174;2022-07-12T14:30:53;26.60;77.80
13464;DHT22;6804;48.774;9.174;2022-07-12T14:33:21;26.80;78.20
13464;DHT22;6804;48.774;9.174;2022-07-12T14:35:52;27.10;77.40
13464;DHT22;6804;48.774;9.174;2022-07-12T14:38:22;27.50;76.20
13464;DHT22;6804;48.774;9.174;2022-07-12T14:40:50;27.70;75.50
13464;DHT22;6804;48.774;9.174;2022-07-12T14:43:19;27.90;75.70
13464;DHT22;6804;48.774;9.174;2022-07-12T14:45:47;28.20;75.30
13464;DHT22;6804;48.774;9.174;2022-07-12T14:48:15;28.20;75.20
13464;DHT22;6804;48.774;9.174;2022-07-12T14:50:43;27.80;75.30
13464;DHT22;6804;48.774;9.174;2022-07-12T14:53:13;27.50;76.00
13464;DHT22;6804;48.774;9.174;2022-07-12T14:55:41;27.60;76.70
13464;DHT22;6804;48.774;9.174;2022-07-12T14:58:10;27.80;75.60
13464;DHT22;6804;48.774;9.174;2022-07-12T15:00:49;27.90;74.90
13464;DHT22;6804;48.774;9.174;2022-07-12T15:03:26;28.00;74.50
13464;DHT22;6804;48.774;9.174;2022-07-12T15:05:57;27.80;74.40
13464;DHT22;6804;48.774;9.174;2022-07-12T15:08:29;27.50;76.10
13464;DHT22;6804;48.774;9.174;2022-07-12T15:10:59;27.60;76.10
13464;DHT22;6804;48.774;9.174;2022-07-12T15:13:28;27.60;74.80
13464;DHT22;6804;48.774;9.174;2022-07-12T15:15:56;27.50;75.50
13464;DHT22;6804;48.774;9.174;2022-07-12T15:18:27;27.60;75.70
13464;DHT22;6804;48.774;9.174;2022-07-12T15:20:57;27.60;75.40
13464;DHT22;6804;48.774;9.174;2022-07-12T15:23:24;27.50;75.40
13464;DHT22;6804;48.774;9.174;2022-07-12T15:25:57;27.50;76.10
13464;DHT22;6804;48.774;9.174;2022-07-12T15:28:25;27.70;74.80
13464;DHT22;6804;48.774;9.174;2022-07-12T15:30:55;27.90;74.80
13464;DHT22;6804;48.774;9.174;2022-07-12T15:33:28;28.00;73.80
13464;DHT22;6804;48.774;9.174;2022-07-12T15:35:59;28.20;73.20
13464;DHT22;6804;48.774;9.174;2022-07-12T15:38:26;28.40;73.30
13464;DHT22;6804;48.774;9.174;2022-07-12T15:40:58;28.50;72.70
13464;DHT22;6804;48.774;9.174;2022-07-12T15:43:28;28.60;72.20
13464;DHT22;6804;48.774;9.174;2022-07-12T15:45:56;28.70;72.50
13464;DHT22;6804;48.774;9.174;2022-07-12T15:48:36;28.60;71.90
13464;DHT22;6804;48.774;9.174;2022-07-12T15:51:06;28.60;72.00
13464;DHT22;6804;48.774;9.174;2022-07-12T15:53:38;28.40;70.60
13464;DHT22;6804;48.774;9.174;2022-07-12T15:56:08;27.90;71.60
13464;DHT22;6804;48.774;9.174;2022-07-12T15:58:38;27.60;72.30
13464;DHT22;6804;48.774;9.174;2022-07-12T16:01:06;27.60;72.10
13464;DHT22;6804;48.774;9.174;2022-07-12T16:03:35;27.70;70.80
13464;DHT22;6804;48.774;9.174;2022-07-12T16:06:04;27.60;71.80